createdAt,value
2019-02-14T00:00:41.186Z,40.50
2019-02-14T00:03:10.197Z,40.50
2019-02-14T00:05:39.270Z,42.37
2019-02-14T00:08:08.300Z,42.27
2019-02-14T00:10:37.358Z,45.13
2019-02-14T00:13:06.417Z,42.37
2019-02-14T00:15:35.358Z,44.80
2019-02-14T00:18:04.418Z,42.20
2019-02-14T00:20:33.457Z,44.80
2019-02-14T00:23:02.440Z,44.30
2019-02-14T00:25:31.530Z,45.37
2019-02-14T00:28:00.909Z,45.20
2019-02-14T00:30:29.883Z,43.93
2019-02-14T00:32:59.219Z,45.27
2019-02-14T00:35:28.250Z,43.10
2019-02-14T00:37:57.913Z,45.07
2019-02-14T00:40:26.954Z,45.70
2019-02-14T00:42:55.971Z,45.17
2019-02-14T00:45:25.005Z,45.97
2019-02-14T00:47:54.056Z,45.77
2019-02-14T00:50:23.074Z,47.10
2019-02-14T00:52:52.171Z,47.83
2019-02-14T00:55:21.176Z,46.60
2019-02-14T00:57:50.228Z,45.33
2019-02-14T01:00:19.296Z,47.43
2019-02-14T01:02:48.647Z,47.23
2019-02-14T01:05:17.572Z,49.60
2019-02-14T01:07:46.524Z,49.97
2019-02-14T01:10:15.646Z,48.87
2019-02-14T01:12:44.636Z,46.10
2019-02-14T01:15:14.884Z,49.83
2019-02-14T01:17:43.794Z,48.57
2019-02-14T01:20:12.895Z,49.97
2019-02-14T01:22:41.915Z,48.53
2019-02-14T01:25:10.977Z,47.17
2019-02-14T01:27:39.976Z,49.50
2019-02-14T01:30:10.170Z,46.37
2019-02-14T01:32:39.228Z,48.23
2019-02-14T01:35:08.664Z,47.90
2019-02-14T01:37:38.039Z,48.87
2019-02-14T01:40:07.353Z,50.97
2019-02-14T01:42:36.362Z,48.40
2019-02-14T01:45:06.431Z,48.90
2019-02-14T01:47:35.403Z,46.87
2019-02-14T01:50:04.669Z,50.83
2019-02-14T01:52:33.727Z,48.80
2019-02-14T01:55:02.785Z,45.93
2019-02-14T01:57:31.854Z,48.17
2019-02-14T02:00:00.861Z,46.93
2019-02-14T02:02:29.891Z,48.23
2019-02-14T02:04:58.957Z,49.57
2019-02-14T02:07:27.967Z,49.30
2019-02-14T02:09:56.986Z,47.27
2019-02-14T02:12:25.966Z,48.40
2019-02-14T02:14:54.983Z,51.53
2019-02-14T02:17:23.981Z,49.80
2019-02-14T02:19:53.375Z,50.27
2019-02-14T02:22:22.380Z,51.30
2019-02-14T02:24:51.406Z,46.13
2019-02-14T02:27:20.467Z,48.53
2019-02-14T02:29:49.407Z,50.60
2019-02-14T02:32:18.491Z,49.90
2019-02-14T02:34:47.506Z,53.97
2019-02-14T02:37:16.449Z,53.70
2019-02-14T02:39:45.515Z,52.60
2019-02-14T02:42:14.545Z,54.03
2019-02-14T02:44:43.522Z,51.47
2019-02-14T02:47:12.887Z,52.30
2019-02-14T02:49:41.861Z,52.10
2019-02-14T02:52:10.879Z,54.17
2019-02-14T02:54:39.952Z,51.53
2019-02-14T02:57:09.027Z,53.03
2019-02-14T02:59:37.997Z,53.00
2019-02-14T03:02:07.094Z,53.00
2019-02-14T03:04:36.102Z,53.90
2019-02-14T03:07:05.423Z,55.93
2019-02-14T03:09:34.507Z,55.17
2019-02-14T03:12:03.518Z,52.73
2019-02-14T03:14:32.563Z,57.03
2019-02-14T03:17:01.617Z,53.60
2019-02-14T03:19:30.597Z,57.33
2019-02-14T03:21:59.662Z,57.70
2019-02-14T03:24:28.731Z,54.47
2019-02-14T03:26:57.751Z,57.03
2019-02-14T03:29:26.797Z,54.63
2019-02-14T03:31:55.863Z,55.93
2019-02-14T03:34:25.193Z,58.97
2019-02-14T03:36:54.245Z,58.47
2019-02-14T03:39:23.778Z,56.80
2019-02-14T03:41:52.841Z,56.10
2019-02-14T03:44:21.870Z,58.17
2019-02-14T03:46:50.917Z,56.37
2019-02-14T03:49:19.889Z,59.30
2019-02-14T03:51:48.942Z,56.50
2019-02-14T03:54:17.977Z,60.57
2019-02-14T03:56:47.310Z,58.80
2019-02-14T03:59:16.326Z,58.67
2019-02-14T04:01:45.333Z,57.60
2019-02-14T04:04:14.380Z,57.00
2019-02-14T04:06:43.439Z,59.37
2019-02-14T04:09:12.500Z,59.03
2019-02-14T04:11:41.477Z,59.67
2019-02-14T04:14:10.490Z,58.80
2019-02-14T04:16:39.559Z,57.83
2019-02-14T04:19:08.623Z,58.40
2019-02-14T04:21:37.712Z,58.17
2019-02-14T04:24:06.777Z,56.90
2019-02-14T04:26:35.739Z,57.90
2019-02-14T04:29:04.800Z,59.23
2019-02-14T04:31:33.814Z,60.57
2019-02-14T04:34:02.828Z,57.53
2019-02-14T04:36:36.086Z,60.87
2019-02-14T04:39:02.522Z,58.00
2019-02-14T04:41:31.528Z,61.73
2019-02-14T04:44:00.843Z,63.73
2019-02-14T04:46:29.908Z,58.10
2019-02-14T04:48:58.867Z,61.47
2019-02-14T04:51:27.881Z,59.83
2019-02-14T04:53:56.929Z,58.40
2019-02-14T04:56:25.979Z,60.83
2019-02-14T04:58:55.043Z,60.50
2019-02-14T05:01:24.073Z,59.43
2019-02-14T05:03:53.076Z,61.17
2019-02-14T05:06:22.086Z,60.50
2019-02-14T05:08:51.155Z,58.77
2019-02-14T05:11:20.178Z,58.93
2019-02-14T05:13:49.230Z,59.03
2019-02-14T05:16:18.166Z,61.10
2019-02-14T05:18:47.568Z,60.97
2019-02-14T05:21:17.011Z,58.87
2019-02-14T05:23:46.083Z,62.47
2019-02-14T05:26:15.023Z,60.67
2019-02-14T05:28:44.152Z,61.60
2019-02-14T05:31:13.210Z,59.70
2019-02-14T05:33:42.201Z,60.17
2019-02-14T05:36:11.148Z,57.80
2019-02-14T05:38:40.163Z,58.90
2019-02-14T05:41:09.497Z,58.43
2019-02-14T05:43:38.594Z,58.57
2019-02-14T05:46:07.611Z,61.77
2019-02-14T05:48:36.604Z,60.50
2019-02-14T05:51:05.679Z,62.17
2019-02-14T05:53:34.690Z,60.77
2019-02-14T05:56:03.754Z,60.83
2019-02-14T05:58:32.710Z,63.07
2019-02-14T06:01:02.270Z,58.20
2019-02-14T06:03:31.580Z,58.80
2019-02-14T06:06:00.663Z,60.87
2019-02-14T06:08:29.621Z,58.00
2019-02-14T06:10:58.562Z,60.70
2019-02-14T06:13:27.591Z,59.93
2019-02-14T06:15:56.563Z,59.67
2019-02-14T06:18:25.614Z,62.63
2019-02-14T06:20:54.499Z,64.67
2019-02-14T06:23:23.611Z,68.40
2019-02-14T06:25:52.623Z,61.40
2019-02-14T06:28:22.020Z,63.47
2019-02-14T06:30:51.032Z,64.63
2019-02-14T06:33:20.092Z,61.23
2019-02-14T06:35:49.141Z,59.87
2019-02-14T06:38:18.160Z,64.93
2019-02-14T06:40:47.610Z,61.30
2019-02-14T06:43:16.551Z,61.60
2019-02-14T06:45:45.580Z,65.00
2019-02-14T06:48:14.647Z,62.43
2019-02-14T06:50:43.586Z,56.50
2019-02-14T06:53:12.488Z,59.23
2019-02-14T06:55:41.492Z,60.80
2019-02-14T06:58:12.745Z,55.00
2019-02-14T07:00:41.323Z,51.70
2019-02-14T07:03:10.375Z,57.27
2019-02-14T07:05:39.618Z,58.63
2019-02-14T07:08:08.649Z,59.70
2019-02-14T07:10:37.587Z,57.13
2019-02-14T07:13:06.639Z,58.87
2019-02-14T07:15:35.661Z,60.10
2019-02-14T07:18:04.722Z,59.70
2019-02-14T07:20:33.737Z,58.00
2019-02-14T07:23:02.713Z,58.73
2019-02-14T07:25:31.768Z,57.50
2019-02-14T07:28:00.831Z,54.80
2019-02-14T07:30:29.887Z,62.40
2019-02-14T07:32:59.220Z,55.70
2019-02-14T07:35:28.268Z,55.53
2019-02-14T07:37:57.343Z,57.37
2019-02-14T07:40:26.415Z,58.37
2019-02-14T07:42:55.418Z,56.67
2019-02-14T07:45:24.455Z,57.27
2019-02-14T07:47:53.513Z,56.53
2019-02-14T07:50:22.880Z,59.73
2019-02-14T07:52:51.962Z,55.60
2019-02-14T07:55:20.906Z,59.77
2019-02-14T07:57:49.980Z,57.07
2019-02-14T08:00:19.048Z,56.27
2019-02-14T08:02:48.198Z,54.63
2019-02-14T08:05:17.219Z,59.77
2019-02-14T08:07:46.256Z,57.07
2019-02-14T08:10:15.633Z,55.73
2019-02-14T08:12:44.648Z,59.30
2019-02-14T08:15:14.522Z,57.23
2019-02-14T08:17:43.993Z,60.87
2019-02-14T08:20:13.395Z,63.67
2019-02-14T08:22:42.495Z,57.23
2019-02-14T08:25:12.236Z,58.93
2019-02-14T08:27:41.223Z,58.43
2019-02-14T08:30:12.498Z,57.03
2019-02-14T08:32:41.553Z,56.77
2019-02-14T08:35:10.579Z,53.27
2019-02-14T08:37:45.472Z,54.10
2019-02-14T08:40:13.334Z,55.93
2019-02-14T08:42:42.385Z,54.40
2019-02-14T08:45:12.025Z,55.63
2019-02-14T08:47:41.302Z,53.23
2019-02-14T08:50:10.398Z,51.60
2019-02-14T08:52:39.839Z,50.20
2019-02-14T08:55:10.041Z,53.77
2019-02-14T08:57:39.304Z,53.80
2019-02-14T09:00:10.046Z,54.30
2019-02-14T09:02:39.060Z,53.77
2019-02-14T09:05:08.123Z,53.70
2019-02-14T09:07:37.166Z,53.37
2019-02-14T09:10:07.294Z,53.07
2019-02-14T09:12:36.349Z,51.60
2019-02-14T09:15:05.582Z,52.57
2019-02-14T09:17:34.563Z,50.67
2019-02-14T09:20:04.101Z,52.03
2019-02-14T09:22:33.169Z,51.47
2019-02-14T09:25:02.289Z,52.17
2019-02-14T09:27:31.337Z,49.57
2019-02-14T09:30:00.749Z,51.40
2019-02-14T09:32:29.893Z,51.60
2019-02-14T09:34:58.853Z,52.13
2019-02-14T09:37:27.865Z,50.93
2019-02-14T09:39:56.914Z,50.77
2019-02-14T09:42:25.967Z,51.97
2019-02-14T09:44:54.949Z,49.40
2019-02-14T09:47:23.995Z,51.43
2019-02-14T09:49:53.006Z,47.40
2019-02-14T09:52:22.095Z,49.87
2019-02-14T09:54:51.537Z,48.93
2019-02-14T09:57:20.517Z,48.90
2019-02-14T09:59:49.595Z,49.20
2019-02-14T10:02:19.001Z,50.90
2019-02-14T10:04:48.009Z,49.33
2019-02-14T10:07:17.086Z,51.00
2019-02-14T10:09:46.097Z,49.20
2019-02-14T10:12:15.108Z,50.53
2019-02-14T10:14:44.161Z,51.57
2019-02-14T10:17:21.826Z,50.73
2019-02-14T10:19:43.882Z,49.77
2019-02-14T10:22:12.896Z,49.70
2019-02-14T10:24:41.883Z,50.57
2019-02-14T10:27:10.871Z,47.93
2019-02-14T10:29:39.897Z,48.10
2019-02-14T10:32:08.980Z,50.00
2019-02-14T10:34:38.051Z,49.20
2019-02-14T10:37:07.062Z,47.20
2019-02-14T10:39:36.123Z,52.00
2019-02-14T10:42:05.134Z,50.33
2019-02-14T10:44:34.219Z,48.97
2019-02-14T10:47:03.270Z,50.00
2019-02-14T10:49:32.302Z,50.93
2019-02-14T10:52:01.321Z,46.77
2019-02-14T10:54:30.713Z,50.37
2019-02-14T10:56:59.738Z,49.20
2019-02-14T10:59:29.133Z,48.70
2019-02-14T11:01:58.109Z,48.43
2019-02-14T11:04:27.164Z,48.87
2019-02-14T11:06:56.184Z,49.23
2019-02-14T11:09:25.223Z,52.90
2019-02-14T11:11:54.307Z,48.80
2019-02-14T11:14:29.277Z,49.43
2019-02-14T11:16:54.120Z,48.80
2019-02-14T11:19:23.199Z,47.83
2019-02-14T11:21:52.575Z,50.00
2019-02-14T11:24:21.647Z,47.33
2019-02-14T11:26:50.671Z,48.47
2019-02-14T11:29:19.648Z,49.13
2019-02-14T11:31:48.959Z,50.47
2019-02-14T11:34:17.942Z,47.20
2019-02-14T11:36:46.954Z,51.10
2019-02-14T11:39:16.039Z,48.07
2019-02-14T11:41:45.126Z,49.20
2019-02-14T11:44:14.222Z,47.63
2019-02-14T11:46:51.244Z,48.20
2019-02-14T11:49:14.294Z,47.57
2019-02-14T11:51:43.358Z,48.53
2019-02-14T11:54:12.374Z,49.27
2019-02-14T11:56:41.393Z,48.17
2019-02-14T11:59:10.508Z,49.43
2019-02-14T12:01:39.526Z,47.73
2019-02-14T12:04:08.926Z,49.57
2019-02-14T12:06:37.987Z,48.67
2019-02-14T12:09:07.784Z,50.60
2019-02-14T12:11:36.836Z,47.63
2019-02-14T12:14:05.896Z,49.20
2019-02-14T12:16:34.921Z,46.80
2019-02-14T12:19:03.932Z,47.80
2019-02-14T12:21:32.962Z,47.83
2019-02-14T12:24:01.942Z,48.00
2019-02-14T12:26:31.022Z,48.17
2019-02-14T12:29:00.096Z,46.67
2019-02-14T12:31:29.149Z,48.27
2019-02-14T12:33:58.390Z,45.43
2019-02-14T12:36:27.730Z,46.83
2019-02-14T12:38:56.823Z,45.40
2019-02-14T12:41:26.176Z,46.53
2019-02-14T12:43:55.251Z,48.37
2019-02-14T12:46:24.306Z,45.23
2019-02-14T12:48:53.252Z,47.60
2019-02-14T12:51:22.261Z,46.53
2019-02-14T12:53:51.248Z,47.50
2019-02-14T12:56:20.194Z,47.30
2019-02-14T12:58:49.579Z,48.43
2019-02-14T13:01:19.022Z,47.77
2019-02-14T13:03:48.357Z,47.20
2019-02-14T13:06:17.708Z,46.80
2019-02-14T13:08:46.774Z,48.30
2019-02-14T13:11:15.825Z,49.30
2019-02-14T13:13:49.782Z,49.37
2019-02-14T13:16:15.710Z,49.23
2019-02-14T13:18:44.790Z,48.33
2019-02-14T13:21:13.720Z,47.47
2019-02-14T13:23:42.787Z,49.60
2019-02-14T13:26:11.855Z,47.97
2019-02-14T13:28:40.887Z,48.50
2019-02-14T13:31:09.953Z,49.00
2019-02-14T13:33:38.983Z,48.83
2019-02-14T13:36:09.017Z,51.57
2019-02-14T13:38:38.061Z,46.23
2019-02-14T13:41:07.157Z,46.73
2019-02-14T13:43:36.098Z,48.40
2019-02-14T13:46:05.123Z,47.93
2019-02-14T13:48:34.112Z,47.10
2019-02-14T13:51:03.449Z,47.53
2019-02-14T13:53:32.510Z,46.33
2019-02-14T13:56:01.540Z,45.13
2019-02-14T13:58:30.521Z,47.37
2019-02-14T14:00:59.586Z,46.33
2019-02-14T14:03:28.625Z,47.90
2019-02-14T14:05:57.700Z,46.57
2019-02-14T14:08:26.763Z,45.50
2019-02-14T14:10:55.853Z,51.40
2019-02-14T14:13:24.894Z,47.07
2019-02-14T14:15:53.962Z,47.63
2019-02-14T14:18:23.002Z,47.13
2019-02-14T14:20:52.054Z,46.87
2019-02-14T14:23:21.350Z,50.10
2019-02-14T14:25:50.421Z,46.50
2019-02-14T14:28:19.467Z,49.10
2019-02-14T14:30:48.567Z,49.80
2019-02-14T14:33:17.849Z,49.97
2019-02-14T14:35:46.937Z,46.80
2019-02-14T14:38:15.878Z,46.57
2019-02-14T14:40:44.933Z,47.40
2019-02-14T14:43:32.964Z,47.93
2019-02-14T14:46:24.991Z,48.20
2019-02-14T14:48:53.954Z,46.80
2019-02-14T14:51:22.990Z,48.43
2019-02-14T14:53:52.001Z,48.20
2019-02-14T14:56:21.072Z,50.40
2019-02-14T14:58:50.133Z,47.30
2019-02-14T15:01:19.193Z,50.70
2019-02-14T15:03:48.309Z,52.70
2019-02-14T15:06:17.497Z,50.20
2019-02-14T15:08:46.517Z,49.53
2019-02-14T15:11:15.568Z,47.60
2019-02-14T15:13:44.581Z,51.60
2019-02-14T15:16:13.636Z,47.90
2019-02-14T15:18:42.645Z,50.80
2019-02-14T15:21:11.673Z,51.20
2019-02-14T15:23:40.675Z,51.47
2019-02-14T15:26:09.684Z,47.50
2019-02-14T15:28:38.794Z,50.50
2019-02-14T15:31:07.771Z,53.80
2019-02-14T15:33:36.723Z,51.03
2019-02-14T15:36:05.749Z,50.27
2019-02-14T15:38:36.874Z,50.47
2019-02-14T15:41:05.601Z,50.73
2019-02-14T15:43:34.946Z,49.80
2019-02-14T15:46:04.008Z,51.83
2019-02-14T15:48:33.096Z,52.57
2019-02-14T15:51:02.398Z,52.50
2019-02-14T15:53:31.473Z,51.17
2019-02-14T15:56:00.470Z,52.17
2019-02-14T15:58:30.767Z,53.23
2019-02-14T16:01:00.361Z,53.60
2019-02-14T16:03:29.217Z,53.73
2019-02-14T16:05:58.145Z,49.07
2019-02-14T16:08:27.537Z,48.70
2019-02-14T16:10:56.590Z,50.70
2019-02-14T16:13:25.604Z,51.80
2019-02-14T16:15:56.618Z,51.53
2019-02-14T16:18:25.418Z,51.90
2019-02-14T16:20:54.430Z,52.70
2019-02-14T16:23:23.483Z,51.47
2019-02-14T16:25:54.022Z,51.33
2019-02-14T16:28:23.185Z,54.87
2019-02-14T16:30:52.988Z,50.10
2019-02-14T16:33:23.641Z,52.43
2019-02-14T16:35:52.726Z,54.60
2019-02-14T16:38:21.757Z,51.47
2019-02-14T16:40:50.818Z,52.07
2019-02-14T16:43:19.764Z,52.67
2019-02-14T16:45:48.773Z,50.50
2019-02-14T16:48:17.834Z,51.43
2019-02-14T16:50:46.894Z,49.07
2019-02-14T16:53:16.257Z,52.60
2019-02-14T16:55:45.272Z,51.60
2019-02-14T16:58:14.581Z,52.43
2019-02-14T17:00:43.596Z,49.23
2019-02-14T17:03:12.641Z,49.17
2019-02-14T17:05:41.654Z,51.23
2019-02-14T17:08:10.591Z,52.60
2019-02-14T17:10:39.651Z,49.23
2019-02-14T17:13:08.658Z,52.13
2019-02-14T17:15:37.661Z,49.87
2019-02-14T17:18:06.719Z,51.07
2019-02-14T17:20:35.656Z,50.97
2019-02-14T17:23:04.704Z,51.20
2019-02-14T17:25:33.762Z,50.17
2019-02-14T17:28:02.776Z,50.33
2019-02-14T17:30:31.826Z,50.53
2019-02-14T17:33:01.149Z,50.90
2019-02-14T17:35:30.139Z,47.07
2019-02-14T17:37:59.209Z,50.70
2019-02-14T17:40:28.275Z,51.17
2019-02-14T17:42:57.212Z,49.70
2019-02-14T17:45:26.288Z,49.17
2019-02-14T17:47:55.351Z,49.83
2019-02-14T17:50:24.285Z,48.43
2019-02-14T17:52:53.303Z,52.50
2019-02-14T17:55:22.668Z,48.20
2019-02-14T17:57:51.783Z,49.73
2019-02-14T18:00:20.799Z,48.23
2019-02-14T18:02:49.806Z,49.73
2019-02-14T18:05:18.865Z,53.13
2019-02-14T18:07:47.879Z,52.80
2019-02-14T18:10:16.891Z,49.57
2019-02-14T18:12:46.250Z,51.97
2019-02-14T18:15:15.358Z,50.13
2019-02-14T18:17:44.301Z,50.80
2019-02-14T18:20:13.368Z,52.37
2019-02-14T18:22:42.392Z,52.23
2019-02-14T18:25:11.631Z,50.00
2019-02-14T18:27:40.729Z,52.77
2019-02-14T18:30:10.255Z,49.23
2019-02-14T18:32:39.313Z,50.90
2019-02-14T18:35:09.065Z,53.13
2019-02-14T18:37:38.356Z,50.50
2019-02-14T18:40:07.985Z,51.13
2019-02-14T18:42:37.128Z,49.00
2019-02-14T18:45:08.173Z,52.97
2019-02-14T18:47:39.706Z,53.33
2019-02-14T18:50:08.931Z,49.10
2019-02-14T18:52:37.915Z,51.90
2019-02-14T18:55:07.834Z,52.30
2019-02-14T18:57:36.884Z,52.23
2019-02-14T19:00:08.652Z,50.67
2019-02-14T19:02:37.709Z,51.30
2019-02-14T19:05:07.194Z,50.50
2019-02-14T19:07:36.552Z,51.70
2019-02-14T19:10:05.724Z,52.27
2019-02-14T19:12:35.017Z,51.03
2019-02-14T19:15:04.089Z,53.60
2019-02-14T19:17:33.466Z,50.60
2019-02-14T19:20:02.412Z,54.27
2019-02-14T19:22:31.471Z,54.80
2019-02-14T19:25:00.528Z,52.43
2019-02-14T19:27:29.831Z,50.90
2019-02-14T19:29:59.149Z,53.43
2019-02-14T19:32:28.202Z,52.67
2019-02-14T19:34:57.189Z,52.97
2019-02-14T19:37:26.126Z,54.50
2019-02-14T19:39:55.248Z,55.30
2019-02-14T19:42:24.191Z,54.67
2019-02-14T19:44:54.538Z,54.57
2019-02-14T19:47:23.553Z,52.10
2019-02-14T19:49:52.561Z,55.80
2019-02-14T19:52:21.577Z,53.90
2019-02-14T19:54:50.597Z,57.63
2019-02-14T19:57:19.681Z,52.90
2019-02-14T19:59:48.747Z,49.37
2019-02-14T20:02:17.801Z,53.83
2019-02-14T20:04:46.809Z,50.13
2019-02-14T20:07:15.892Z,58.10
2019-02-14T20:09:44.913Z,49.97
2019-02-14T20:12:13.925Z,57.50
2019-02-14T20:14:42.838Z,48.77
2019-02-14T20:17:11.845Z,50.00
2019-02-14T20:19:40.906Z,50.03
2019-02-14T20:22:09.937Z,54.93
2019-02-14T20:24:38.986Z,50.47
2019-02-14T20:27:07.966Z,55.60
2019-02-14T20:29:36.975Z,55.40
2019-02-14T20:32:06.253Z,52.27
2019-02-14T20:34:35.198Z,53.30
2019-02-14T20:37:04.313Z,56.40
2019-02-14T20:39:33.329Z,54.43
2019-02-14T20:42:02.349Z,55.57
2019-02-14T20:44:31.366Z,53.73
2019-02-14T20:47:00.437Z,50.27
2019-02-14T20:49:29.445Z,50.33
2019-02-14T20:51:58.465Z,52.33
2019-02-14T20:54:28.182Z,49.37
2019-02-14T20:56:57.237Z,69.67
2019-02-14T20:59:26.592Z,61.20
2019-02-14T21:01:55.614Z,56.70
2019-02-14T21:04:24.631Z,58.33
2019-02-14T21:06:53.684Z,56.13
2019-02-14T21:09:22.694Z,55.20
2019-02-14T21:11:54.726Z,56.40
2019-02-14T21:14:22.454Z,56.23
2019-02-14T21:16:51.510Z,49.67
2019-02-14T21:19:20.862Z,55.87
2019-02-14T21:21:50.194Z,48.30
2019-02-14T21:24:19.487Z,54.23
2019-02-14T21:26:48.549Z,52.13
2019-02-14T21:29:17.584Z,51.17
2019-02-14T21:31:46.658Z,50.53
2019-02-14T21:34:15.724Z,47.33
2019-02-14T21:36:45.021Z,53.90
2019-02-14T21:39:14.076Z,51.77
2019-02-14T21:41:43.096Z,54.43
2019-02-14T21:44:12.175Z,48.47
2019-02-14T21:46:41.208Z,50.40
2019-02-14T21:49:10.195Z,50.73
2019-02-14T21:51:39.186Z,52.50
2019-02-14T21:54:08.129Z,50.97
2019-02-14T21:56:37.110Z,50.47
2019-02-14T21:59:06.179Z,51.63
2019-02-14T22:01:35.481Z,48.33
2019-02-14T22:04:04.888Z,51.90
2019-02-14T22:06:34.310Z,49.90
2019-02-14T22:09:04.482Z,53.40
2019-02-14T22:11:34.732Z,54.50
2019-02-14T22:14:04.089Z,52.47
2019-02-14T22:16:33.463Z,52.60
2019-02-14T22:19:03.193Z,55.97
2019-02-14T22:21:32.247Z,57.93
2019-02-14T22:24:01.262Z,52.93
2019-02-14T22:26:30.308Z,57.93
2019-02-14T22:28:59.345Z,54.93
2019-02-14T22:31:28.409Z,56.03
2019-02-14T22:33:57.694Z,55.20
2019-02-14T22:36:27.052Z,54.17
2019-02-14T22:38:56.110Z,56.40
2019-02-14T22:41:25.069Z,57.70
2019-02-14T22:43:54.165Z,58.53
2019-02-14T22:46:23.183Z,59.37
2019-02-14T22:48:52.239Z,58.10
2019-02-14T22:51:21.184Z,57.50
2019-02-14T22:53:50.241Z,66.10
2019-02-14T22:56:19.264Z,59.53
2019-02-14T22:58:48.728Z,59.03
2019-02-14T23:01:17.856Z,55.53
2019-02-14T23:03:46.833Z,58.70
2019-02-14T23:06:15.842Z,56.73
2019-02-14T23:08:45.205Z,59.70
2019-02-14T23:11:14.257Z,58.23
2019-02-14T23:13:43.196Z,57.43
2019-02-14T23:16:12.623Z,55.97
2019-02-14T23:18:41.642Z,64.27
2019-02-14T23:21:10.666Z,58.17
2019-02-14T23:23:39.641Z,61.20
2019-02-14T23:26:08.654Z,60.83
2019-02-14T23:28:38.006Z,62.60
2019-02-14T23:31:07.025Z,60.90
2019-02-14T23:33:36.087Z,59.87
2019-02-14T23:36:05.116Z,63.57
2019-02-14T23:38:34.134Z,62.50
2019-02-14T23:41:03.521Z,63.20
2019-02-14T23:43:32.579Z,65.53
2019-02-14T23:46:01.602Z,60.23
2019-02-14T23:48:30.669Z,63.00
2019-02-14T23:50:59.983Z,59.17
2019-02-14T23:53:29.042Z,59.87
2019-02-14T23:55:58.003Z,60.30
2019-02-14T23:58:27.074Z,61.50
